sensor_id;sensor_type;location;lat;lon;timestamp;P1;durP1;ratioP1;P2;durP2;ratioP2
68792;SDS011;55778;54.346;10.210;2023-04-16T00:00:38;23.75;;;12.95;;
68792;SDS011;55778;54.346;10.210;2023-04-16T00:03:03;26.40;;;12.75;;
68792;SDS011;55778;54.346;10.210;2023-04-16T00:05:29;26.35;;;12.73;;
68792;SDS011;55778;54.346;10.210;2023-04-16T00:07:54;23.30;;;12.70;;
68792;SDS011;55778;54.346;10.210;2023-04-16T00:10:20;25.40;;;12.48;;
68792;SDS011;55778;54.346;10.210;2023-04-16T00:12:45;21.52;;;11.90;;
68792;SDS011;55778;54.346;10.210;2023-04-16T00:15:10;24.30;;;12.60;;
68792;SDS011;55778;54.346;10.210;2023-04-16T00:17:36;26.17;;;12.85;;
68792;SDS011;55778;54.346;10.210;2023-04-16T00:20:01;22.45;;;12.48;;
68792;SDS011;55778;54.346;10.210;2023-04-16T00:22:27;23.20;;;12.40;;
68792;SDS011;55778;54.346;10.210;2023-04-16T00:24:52;25.30;;;12.80;;
68792;SDS011;55778;54.346;10.210;2023-04-16T00:27:18;23.80;;;12.50;;
68792;SDS011;55778;54.346;10.210;2023-04-16T00:29:44;21.65;;;12.23;;
68792;SDS011;55778;54.346;10.210;2023-04-16T00:32:09;22.08;;;12.20;;
68792;SDS011;55778;54.346;10.210;2023-04-16T00:34:35;26.17;;;12.18;;
68792;SDS011;55778;54.346;10.210;2023-04-16T00:37:00;20.55;;;11.43;;
68792;SDS011;55778;54.346;10.210;2023-04-16T00:39:26;26.77;;;12.70;;
68792;SDS011;55778;54.346;10.210;2023-04-16T00:41:51;22.70;;;11.45;;
68792;SDS011;55778;54.346;10.210;2023-04-16T00:44:17;23.52;;;12.23;;
68792;SDS011;55778;54.346;10.210;2023-04-16T00:46:42;23.77;;;12.35;;
68792;SDS011;55778;54.346;10.210;2023-04-16T00:49:08;23.05;;;11.95;;
68792;SDS011;55778;54.346;10.210;2023-04-16T00:51:34;24.27;;;11.73;;
68792;SDS011;55778;54.346;10.210;2023-04-16T00:54:00;23.92;;;12.35;;
68792;SDS011;55778;54.346;10.210;2023-04-16T00:56:27;25.88;;;12.73;;
68792;SDS011;55778;54.346;10.210;2023-04-16T00:58:53;23.05;;;12.32;;
68792;SDS011;55778;54.346;10.210;2023-04-16T01:01:20;22.52;;;12.23;;
68792;SDS011;55778;54.346;10.210;2023-04-16T01:03:46;22.63;;;12.05;;
68792;SDS011;55778;54.346;10.210;2023-04-16T01:06:12;24.77;;;12.43;;
68792;SDS011;55778;54.346;10.210;2023-04-16T01:08:38;23.33;;;11.75;;
68792;SDS011;55778;54.346;10.210;2023-04-16T01:11:04;26.05;;;11.95;;
68792;SDS011;55778;54.346;10.210;2023-04-16T01:13:30;25.42;;;11.73;;
68792;SDS011;55778;54.346;10.210;2023-04-16T01:15:55;20.80;;;11.80;;
68792;SDS011;55778;54.346;10.210;2023-04-16T01:18:21;22.88;;;11.77;;
68792;SDS011;55778;54.346;10.210;2023-04-16T01:20:47;24.65;;;12.43;;
68792;SDS011;55778;54.346;10.210;2023-04-16T01:23:14;21.88;;;11.85;;
68792;SDS011;55778;54.346;10.210;2023-04-16T01:25:40;23.35;;;11.68;;
68792;SDS011;55778;54.346;10.210;2023-04-16T01:28:06;24.20;;;12.20;;
68792;SDS011;55778;54.346;10.210;2023-04-16T01:30:31;23.27;;;12.52;;
68792;SDS011;55778;54.346;10.210;2023-04-16T01:32:56;22.20;;;12.38;;
68792;SDS011;55778;54.346;10.210;2023-04-16T01:35:22;24.17;;;12.95;;
68792;SDS011;55778;54.346;10.210;2023-04-16T01:37:49;27.63;;;13.88;;
68792;SDS011;55778;54.346;10.210;2023-04-16T01:40:15;24.90;;;12.85;;
68792;SDS011;55778;54.346;10.210;2023-04-16T01:42:41;27.63;;;14.25;;
68792;SDS011;55778;54.346;10.210;2023-04-16T01:45:07;23.92;;;12.70;;
68792;SDS011;55778;54.346;10.210;2023-04-16T01:47:32;25.55;;;13.20;;
68792;SDS011;55778;54.346;10.210;2023-04-16T01:49:58;26.70;;;13.25;;
68792;SDS011;55778;54.346;10.210;2023-04-16T01:52:24;24.90;;;13.05;;
68792;SDS011;55778;54.346;10.210;2023-04-16T01:54:50;26.23;;;12.85;;
68792;SDS011;55778;54.346;10.210;2023-04-16T01:57:15;26.90;;;13.32;;
68792;SDS011;55778;54.346;10.210;2023-04-16T01:59:40;24.38;;;12.95;;
68792;SDS011;55778;54.346;10.210;2023-04-16T02:02:08;25.33;;;13.73;;
68792;SDS011;55778;54.346;10.210;2023-04-16T02:04:38;29.03;;;13.23;;
68792;SDS011;55778;54.346;10.210;2023-04-16T02:07:09;25.05;;;13.30;;
68792;SDS011;55778;54.346;10.210;2023-04-16T02:09:38;24.33;;;12.70;;
68792;SDS011;55778;54.346;10.210;2023-04-16T02:12:04;24.58;;;12.35;;
68792;SDS011;55778;54.346;10.210;2023-04-16T02:14:31;25.05;;;12.48;;
68792;SDS011;55778;54.346;10.210;2023-04-16T02:16:57;21.98;;;11.75;;
68792;SDS011;55778;54.346;10.210;2023-04-16T02:19:23;23.65;;;12.55;;
68792;SDS011;55778;54.346;10.210;2023-04-16T02:21:52;22.75;;;11.93;;
68792;SDS011;55778;54.346;10.210;2023-04-16T02:24:17;23.43;;;12.57;;
68792;SDS011;55778;54.346;10.210;2023-04-16T02:26:43;23.58;;;12.75;;
68792;SDS011;55778;54.346;10.210;2023-04-16T02:29:09;22.85;;;12.18;;
68792;SDS011;55778;54.346;10.210;2023-04-16T02:31:35;21.98;;;12.52;;
68792;SDS011;55778;54.346;10.210;2023-04-16T02:34:00;23.70;;;12.05;;
68792;SDS011;55778;54.346;10.210;2023-04-16T02:36:26;25.20;;;12.73;;
68792;SDS011;55778;54.346;10.210;2023-04-16T02:38:51;25.63;;;12.68;;
68792;SDS011;55778;54.346;10.210;2023-04-16T02:41:17;25.38;;;12.45;;
68792;SDS011;55778;54.346;10.210;2023-04-16T02:43:42;23.75;;;12.88;;
68792;SDS011;55778;54.346;10.210;2023-04-16T02:46:08;21.88;;;12.10;;
68792;SDS011;55778;54.346;10.210;2023-04-16T02:48:33;24.75;;;12.70;;
68792;SDS011;55778;54.346;10.210;2023-04-16T02:50:58;24.27;;;12.48;;
68792;SDS011;55778;54.346;10.210;2023-04-16T02:53:24;24.30;;;11.82;;
68792;SDS011;55778;54.346;10.210;2023-04-16T02:55:50;22.50;;;12.15;;
68792;SDS011;55778;54.346;10.210;2023-04-16T02:58:19;24.73;;;12.80;;
68792;SDS011;55778;54.346;10.210;2023-04-16T03:00:45;25.80;;;12.50;;
68792;SDS011;55778;54.346;10.210;2023-04-16T03:03:11;22.67;;;12.27;;
68792;SDS011;55778;54.346;10.210;2023-04-16T03:05:36;20.83;;;11.73;;
68792;SDS011;55778;54.346;10.210;2023-04-16T03:08:04;22.05;;;11.90;;
68792;SDS011;55778;54.346;10.210;2023-04-16T03:10:30;24.10;;;13.02;;
68792;SDS011;55778;54.346;10.210;2023-04-16T03:12:56;21.90;;;12.50;;
68792;SDS011;55778;54.346;10.210;2023-04-16T03:15:22;28.15;;;12.85;;
68792;SDS011;55778;54.346;10.210;2023-04-16T03:17:48;23.40;;;12.98;;
68792;SDS011;55778;54.346;10.210;2023-04-16T03:20:16;23.95;;;12.40;;
68792;SDS011;55778;54.346;10.210;2023-04-16T03:22:42;23.60;;;12.18;;
68792;SDS011;55778;54.346;10.210;2023-04-16T03:25:07;25.65;;;12.23;;
68792;SDS011;55778;54.346;10.210;2023-04-16T03:27:33;24.50;;;12.40;;
68792;SDS011;55778;54.346;10.210;2023-04-16T03:29:59;23.35;;;12.13;;
68792;SDS011;55778;54.346;10.210;2023-04-16T03:32:25;25.38;;;12.10;;
68792;SDS011;55778;54.346;10.210;2023-04-16T03:34:50;22.55;;;12.02;;
68792;SDS011;55778;54.346;10.210;2023-04-16T03:37:16;23.92;;;12.18;;
68792;SDS011;55778;54.346;10.210;2023-04-16T03:39:41;22.95;;;12.63;;
68792;SDS011;55778;54.346;10.210;2023-04-16T03:42:06;23.35;;;11.85;;
68792;SDS011;55778;54.346;10.210;2023-04-16T03:44:32;21.83;;;12.15;;
68792;SDS011;55778;54.346;10.210;2023-04-16T03:46:57;22.10;;;11.98;;
68792;SDS011;55778;54.346;10.210;2023-04-16T03:49:23;21.88;;;12.07;;
68792;SDS011;55778;54.346;10.210;2023-04-16T03:51:48;22.75;;;12.55;;
68792;SDS011;55778;54.346;10.210;2023-04-16T03:54:14;24.25;;;12.50;;
68792;SDS011;55778;54.346;10.210;2023-04-16T03:56:39;21.17;;;10.95;;
68792;SDS011;55778;54.346;10.210;2023-04-16T03:59:05;21.80;;;11.88;;
68792;SDS011;55778;54.346;10.210;2023-04-16T04:01:31;21.98;;;11.95;;
68792;SDS011;55778;54.346;10.210;2023-04-16T04:03:56;23.20;;;12.43;;
68792;SDS011;55778;54.346;10.210;2023-04-16T04:06:21;22.10;;;11.07;;
68792;SDS011;55778;54.346;10.210;2023-04-16T04:08:47;22.20;;;11.85;;
68792;SDS011;55778;54.346;10.210;2023-04-16T04:11:12;20.15;;;11.18;;
68792;SDS011;55778;54.346;10.210;2023-04-16T04:13:37;21.15;;;11.27;;
68792;SDS011;55778;54.346;10.210;2023-04-16T04:16:03;23.88;;;11.85;;
68792;SDS011;55778;54.346;10.210;2023-04-16T04:18:29;24.52;;;12.88;;
68792;SDS011;55778;54.346;10.210;2023-04-16T04:20:55;21.55;;;11.18;;
68792;SDS011;55778;54.346;10.210;2023-04-16T04:23:21;22.88;;;11.80;;
68792;SDS011;55778;54.346;10.210;2023-04-16T04:25:46;23.58;;;11.57;;
68792;SDS011;55778;54.346;10.210;2023-04-16T04:28:11;23.95;;;11.70;;
68792;SDS011;55778;54.346;10.210;2023-04-16T04:30:37;22.25;;;10.88;;
68792;SDS011;55778;54.346;10.210;2023-04-16T04:33:02;21.23;;;11.63;;
68792;SDS011;55778;54.346;10.210;2023-04-16T04:35:28;20.98;;;10.85;;
68792;SDS011;55778;54.346;10.210;2023-04-16T04:37:53;21.95;;;11.93;;
68792;SDS011;55778;54.346;10.210;2023-04-16T04:40:18;21.77;;;11.20;;
68792;SDS011;55778;54.346;10.210;2023-04-16T04:42:44;22.35;;;12.60;;
68792;SDS011;55778;54.346;10.210;2023-04-16T04:45:10;23.48;;;11.93;;
68792;SDS011;55778;54.346;10.210;2023-04-16T04:47:35;19.48;;;11.07;;
68792;SDS011;55778;54.346;10.210;2023-04-16T04:50:00;20.40;;;11.60;;
68792;SDS011;55778;54.346;10.210;2023-04-16T04:52:26;22.05;;;11.55;;
68792;SDS011;55778;54.346;10.210;2023-04-16T04:54:51;20.70;;;11.60;;
68792;SDS011;55778;54.346;10.210;2023-04-16T04:57:17;23.02;;;11.55;;
68792;SDS011;55778;54.346;10.210;2023-04-16T04:59:42;25.30;;;13.13;;
68792;SDS011;55778;54.346;10.210;2023-04-16T05:02:07;21.23;;;11.43;;
68792;SDS011;55778;54.346;10.210;2023-04-16T05:04:33;21.35;;;11.82;;
68792;SDS011;55778;54.346;10.210;2023-04-16T05:06:58;20.75;;;11.50;;
68792;SDS011;55778;54.346;10.210;2023-04-16T05:09:24;22.52;;;11.88;;
68792;SDS011;55778;54.346;10.210;2023-04-16T05:11:49;22.33;;;11.30;;
68792;SDS011;55778;54.346;10.210;2023-04-16T05:14:14;19.05;;;11.02;;
68792;SDS011;55778;54.346;10.210;2023-04-16T05:16:40;21.67;;;11.60;;
68792;SDS011;55778;54.346;10.210;2023-04-16T05:19:05;20.20;;;10.88;;
68792;SDS011;55778;54.346;10.210;2023-04-16T05:21:31;21.70;;;11.02;;
68792;SDS011;55778;54.346;10.210;2023-04-16T05:23:57;21.23;;;11.32;;
68792;SDS011;55778;54.346;10.210;2023-04-16T05:26:22;20.42;;;11.13;;
68792;SDS011;55778;54.346;10.210;2023-04-16T05:28:48;21.08;;;11.18;;
68792;SDS011;55778;54.346;10.210;2023-04-16T05:31:13;22.98;;;11.02;;
68792;SDS011;55778;54.346;10.210;2023-04-16T05:33:38;21.67;;;11.75;;
68792;SDS011;55778;54.346;10.210;2023-04-16T05:36:04;24.15;;;11.98;;
68792;SDS011;55778;54.346;10.210;2023-04-16T05:38:30;19.85;;;10.68;;
68792;SDS011;55778;54.346;10.210;2023-04-16T05:40:56;26.17;;;13.60;;
68792;SDS011;55778;54.346;10.210;2023-04-16T05:43:22;24.92;;;14.23;;
68792;SDS011;55778;54.346;10.210;2023-04-16T05:45:47;22.05;;;10.95;;
68792;SDS011;55778;54.346;10.210;2023-04-16T05:48:12;21.40;;;11.13;;
68792;SDS011;55778;54.346;10.210;2023-04-16T05:50:38;20.10;;;11.18;;
68792;SDS011;55778;54.346;10.210;2023-04-16T05:53:07;24.15;;;10.93;;
68792;SDS011;55778;54.346;10.210;2023-04-16T05:55:33;22.00;;;11.82;;
68792;SDS011;55778;54.346;10.210;2023-04-16T05:58:00;22.77;;;11.35;;
68792;SDS011;55778;54.346;10.210;2023-04-16T06:00:28;20.10;;;10.73;;
68792;SDS011;55778;54.346;10.210;2023-04-16T06:02:54;19.63;;;11.20;;
68792;SDS011;55778;54.346;10.210;2023-04-16T06:05:19;21.63;;;11.30;;
68792;SDS011;55778;54.346;10.210;2023-04-16T06:07:45;23.65;;;12.00;;
68792;SDS011;55778;54.346;10.210;2023-04-16T06:10:10;20.55;;;11.70;;
68792;SDS011;55778;54.346;10.210;2023-04-16T06:12:35;19.90;;;10.75;;
68792;SDS011;55778;54.346;10.210;2023-04-16T06:15:01;20.92;;;10.77;;
68792;SDS011;55778;54.346;10.210;2023-04-16T06:17:27;21.42;;;12.23;;
68792;SDS011;55778;54.346;10.210;2023-04-16T06:19:53;23.73;;;11.82;;
68792;SDS011;55778;54.346;10.210;2023-04-16T06:22:18;25.35;;;11.90;;
68792;SDS011;55778;54.346;10.210;2023-04-16T06:24:43;20.50;;;10.98;;
68792;SDS011;55778;54.346;10.210;2023-04-16T06:27:09;22.10;;;11.68;;
68792;SDS011;55778;54.346;10.210;2023-04-16T06:29:34;23.90;;;12.63;;
68792;SDS011;55778;54.346;10.210;2023-04-16T06:31:59;21.02;;;11.18;;
68792;SDS011;55778;54.346;10.210;2023-04-16T06:34:25;20.33;;;11.30;;
68792;SDS011;55778;54.346;10.210;2023-04-16T06:36:51;24.35;;;12.63;;
68792;SDS011;55778;54.346;10.210;2023-04-16T06:39:17;22.75;;;12.18;;
68792;SDS011;55778;54.346;10.210;2023-04-16T06:41:45;21.25;;;11.55;;
68792;SDS011;55778;54.346;10.210;2023-04-16T06:44:11;22.23;;;11.48;;
68792;SDS011;55778;54.346;10.210;2023-04-16T06:46:36;22.13;;;12.02;;
68792;SDS011;55778;54.346;10.210;2023-04-16T06:49:02;24.63;;;12.18;;
68792;SDS011;55778;54.346;10.210;2023-04-16T06:51:27;22.13;;;12.40;;
68792;SDS011;55778;54.346;10.210;2023-04-16T06:53:53;24.00;;;12.77;;
68792;SDS011;55778;54.346;10.210;2023-04-16T06:56:18;24.73;;;13.90;;
68792;SDS011;55778;54.346;10.210;2023-04-16T06:58:43;25.17;;;13.20;;
68792;SDS011;55778;54.346;10.210;2023-04-16T07:01:09;24.15;;;12.60;;
68792;SDS011;55778;54.346;10.210;2023-04-16T07:03:34;27.10;;;13.90;;
68792;SDS011;55778;54.346;10.210;2023-04-16T07:06:00;25.08;;;13.38;;
68792;SDS011;55778;54.346;10.210;2023-04-16T07:08:26;22.30;;;13.05;;
68792;SDS011;55778;54.346;10.210;2023-04-16T07:10:52;23.42;;;12.25;;
68792;SDS011;55778;54.346;10.210;2023-04-16T07:13:18;23.42;;;12.38;;
68792;SDS011;55778;54.346;10.210;2023-04-16T07:15:43;23.25;;;12.80;;
68792;SDS011;55778;54.346;10.210;2023-04-16T07:18:09;20.98;;;11.82;;
68792;SDS011;55778;54.346;10.210;2023-04-16T07:20:34;25.70;;;12.90;;
68792;SDS011;55778;54.346;10.210;2023-04-16T07:23:00;22.27;;;12.15;;
68792;SDS011;55778;54.346;10.210;2023-04-16T07:25:25;22.30;;;11.52;;
68792;SDS011;55778;54.346;10.210;2023-04-16T07:27:51;25.05;;;12.10;;
68792;SDS011;55778;54.346;10.210;2023-04-16T07:30:17;21.38;;;11.90;;
68792;SDS011;55778;54.346;10.210;2023-04-16T07:32:43;23.98;;;13.10;;
68792;SDS011;55778;54.346;10.210;2023-04-16T07:35:08;21.23;;;11.07;;
68792;SDS011;55778;54.346;10.210;2023-04-16T07:37:34;23.08;;;12.50;;
68792;SDS011;55778;54.346;10.210;2023-04-16T07:39:59;20.55;;;10.80;;
68792;SDS011;55778;54.346;10.210;2023-04-16T07:42:25;22.35;;;12.07;;
68792;SDS011;55778;54.346;10.210;2023-04-16T07:44:51;20.42;;;12.00;;
68792;SDS011;55778;54.346;10.210;2023-04-16T07:47:17;20.35;;;11.80;;
68792;SDS011;55778;54.346;10.210;2023-04-16T07:49:42;21.27;;;12.18;;
68792;SDS011;55778;54.346;10.210;2023-04-16T07:52:08;23.58;;;12.30;;
68792;SDS011;55778;54.346;10.210;2023-04-16T07:54:33;23.10;;;11.70;;
68792;SDS011;55778;54.346;10.210;2023-04-16T07:56:58;24.48;;;11.85;;
68792;SDS011;55778;54.346;10.210;2023-04-16T07:59:24;22.75;;;12.00;;
68792;SDS011;55778;54.346;10.210;2023-04-16T08:01:51;21.52;;;12.00;;
68792;SDS011;55778;54.346;10.210;2023-04-16T08:04:17;21.40;;;11.48;;
68792;SDS011;55778;54.346;10.210;2023-04-16T08:06:48;23.38;;;12.07;;
68792;SDS011;55778;54.346;10.210;2023-04-16T08:09:14;22.15;;;11.57;;
68792;SDS011;55778;54.346;10.210;2023-04-16T08:11:40;20.92;;;11.82;;
68792;SDS011;55778;54.346;10.210;2023-04-16T08:14:05;24.80;;;12.05;;
68792;SDS011;55778;54.346;10.210;2023-04-16T08:16:30;21.27;;;11.38;;
68792;SDS011;55778;54.346;10.210;2023-04-16T08:18:56;21.20;;;10.93;;
68792;SDS011;55778;54.346;10.210;2023-04-16T08:21:21;21.90;;;10.98;;
68792;SDS011;55778;54.346;10.210;2023-04-16T08:23:46;22.33;;;11.45;;
68792;SDS011;55778;54.346;10.210;2023-04-16T08:26:12;20.00;;;10.38;;
68792;SDS011;55778;54.346;10.210;2023-04-16T08:28:37;20.20;;;11.00;;
68792;SDS011;55778;54.346;10.210;2023-04-16T08:31:03;18.88;;;10.40;;
68792;SDS011;55778;54.346;10.210;2023-04-16T08:33:28;23.42;;;11.90;;
68792;SDS011;55778;54.346;10.210;2023-04-16T08:35:54;19.65;;;10.90;;
68792;SDS011;55778;54.346;10.210;2023-04-16T08:38:19;18.67;;;10.55;;
68792;SDS011;55778;54.346;10.210;2023-04-16T08:40:45;18.73;;;10.30;;
68792;SDS011;55778;54.346;10.210;2023-04-16T08:43:12;22.35;;;10.52;;
68792;SDS011;55778;54.346;10.210;2023-04-16T08:45:39;18.35;;;10.18;;
68792;SDS011;55778;54.346;10.210;2023-04-16T08:48:08;20.70;;;10.55;;
68792;SDS011;55778;54.346;10.210;2023-04-16T08:50:35;20.23;;;10.25;;
68792;SDS011;55778;54.346;10.210;2023-04-16T08:53:05;19.90;;;10.88;;
68792;SDS011;55778;54.346;10.210;2023-04-16T08:58:02;18.98;;;9.60;;
68792;SDS011;55778;54.346;10.210;2023-04-16T09:00:32;18.67;;;10.50;;
68792;SDS011;55778;54.346;10.210;2023-04-16T09:02:59;20.88;;;9.75;;
68792;SDS011;55778;54.346;10.210;2023-04-16T09:05:25;19.30;;;10.60;;
68792;SDS011;55778;54.346;10.210;2023-04-16T09:07:53;21.80;;;11.18;;
68792;SDS011;55778;54.346;10.210;2023-04-16T09:10:18;22.38;;;10.93;;
68792;SDS011;55778;54.346;10.210;2023-04-16T09:12:44;22.40;;;10.27;;
68792;SDS011;55778;54.346;10.210;2023-04-16T09:15:10;20.42;;;10.18;;
68792;SDS011;55778;54.346;10.210;2023-04-16T09:17:37;18.70;;;10.00;;
68792;SDS011;55778;54.346;10.210;2023-04-16T09:20:06;19.65;;;9.90;;
68792;SDS011;55778;54.346;10.210;2023-04-16T09:22:36;19.73;;;10.18;;
68792;SDS011;55778;54.346;10.210;2023-04-16T09:25:02;20.33;;;10.55;;
68792;SDS011;55778;54.346;10.210;2023-04-16T09:27:29;18.10;;;9.80;;
68792;SDS011;55778;54.346;10.210;2023-04-16T09:29:54;21.55;;;11.82;;
68792;SDS011;55778;54.346;10.210;2023-04-16T09:32:23;18.35;;;10.35;;
68792;SDS011;55778;54.346;10.210;2023-04-16T09:34:54;19.75;;;10.38;;
68792;SDS011;55778;54.346;10.210;2023-04-16T09:37:23;19.30;;;9.65;;
68792;SDS011;55778;54.346;10.210;2023-04-16T09:39:56;21.52;;;10.50;;
68792;SDS011;55778;54.346;10.210;2023-04-16T09:42:26;18.52;;;9.95;;
68792;SDS011;55778;54.346;10.210;2023-04-16T09:44:53;20.00;;;11.02;;
68792;SDS011;55778;54.346;10.210;2023-04-16T09:47:20;16.45;;;9.73;;
68792;SDS011;55778;54.346;10.210;2023-04-16T09:49:46;17.35;;;9.80;;
68792;SDS011;55778;54.346;10.210;2023-04-16T09:52:13;20.73;;;10.50;;
68792;SDS011;55778;54.346;10.210;2023-04-16T09:54:46;17.75;;;9.93;;
68792;SDS011;55778;54.346;10.210;2023-04-16T09:57:19;17.88;;;10.00;;
68792;SDS011;55778;54.346;10.210;2023-04-16T09:59:51;20.92;;;10.57;;
68792;SDS011;55778;54.346;10.210;2023-04-16T10:02:28;21.63;;;10.70;;
68792;SDS011;55778;54.346;10.210;2023-04-16T10:04:55;19.63;;;10.55;;
68792;SDS011;55778;54.346;10.210;2023-04-16T10:07:28;19.55;;;10.10;;
68792;SDS011;55778;54.346;10.210;2023-04-16T10:09:57;20.10;;;10.40;;
68792;SDS011;55778;54.346;10.210;2023-04-16T10:12:26;22.15;;;10.10;;
68792;SDS011;55778;54.346;10.210;2023-04-16T10:14:53;24.50;;;11.45;;
68792;SDS011;55778;54.346;10.210;2023-04-16T10:17:25;19.83;;;10.95;;
68792;SDS011;55778;54.346;10.210;2023-04-16T10:19:53;19.48;;;10.68;;
68792;SDS011;55778;54.346;10.210;2023-04-16T10:22:20;17.80;;;10.05;;
68792;SDS011;55778;54.346;10.210;2023-04-16T10:24:45;20.88;;;9.93;;
68792;SDS011;55778;54.346;10.210;2023-04-16T10:27:11;20.00;;;10.55;;
68792;SDS011;55778;54.346;10.210;2023-04-16T10:29:37;18.77;;;10.88;;
68792;SDS011;55778;54.346;10.210;2023-04-16T10:32:03;20.63;;;10.95;;
68792;SDS011;55778;54.346;10.210;2023-04-16T10:34:30;18.98;;;10.10;;
68792;SDS011;55778;54.346;10.210;2023-04-16T10:36:56;19.30;;;10.50;;
68792;SDS011;55778;54.346;10.210;2023-04-16T10:39:22;19.75;;;10.48;;
68792;SDS011;55778;54.346;10.210;2023-04-16T10:42:05;20.17;;;10.50;;
68792;SDS011;55778;54.346;10.210;2023-04-16T10:44:38;20.27;;;10.85;;
68792;SDS011;55778;54.346;10.210;2023-04-16T10:47:13;20.10;;;10.90;;
68792;SDS011;55778;54.346;10.210;2023-04-16T10:49:38;18.48;;;10.02;;
68792;SDS011;55778;54.346;10.210;2023-04-16T10:52:14;17.42;;;10.27;;
68792;SDS011;55778;54.346;10.210;2023-04-16T10:54:44;19.17;;;10.25;;
68792;SDS011;55778;54.346;10.210;2023-04-16T10:57:16;35.50;;;20.15;;
68792;SDS011;55778;54.346;10.210;2023-04-16T10:59:44;19.75;;;10.88;;
68792;SDS011;55778;54.346;10.210;2023-04-16T11:02:14;17.92;;;10.85;;
68792;SDS011;55778;54.346;10.210;2023-04-16T11:04:46;22.05;;;10.90;;
68792;SDS011;55778;54.346;10.210;2023-04-16T11:07:20;22.33;;;11.38;;
68792;SDS011;55778;54.346;10.210;2023-04-16T11:09:56;20.20;;;10.80;;
68792;SDS011;55778;54.346;10.210;2023-04-16T11:12:32;19.08;;;10.43;;
68792;SDS011;55778;54.346;10.210;2023-04-16T11:15:03;20.50;;;10.43;;
68792;SDS011;55778;54.346;10.210;2023-04-16T11:22:42;20.90;;;10.90;;
68792;SDS011;55778;54.346;10.210;2023-04-16T11:25:09;19.48;;;10.35;;
68792;SDS011;55778;54.346;10.210;2023-04-16T11:27:34;18.13;;;10.52;;
68792;SDS011;55778;54.346;10.210;2023-04-16T11:30:00;16.40;;;9.80;;
68792;SDS011;55778;54.346;10.210;2023-04-16T11:32:31;18.42;;;10.75;;
68792;SDS011;55778;54.346;10.210;2023-04-16T11:34:58;19.08;;;10.35;;
68792;SDS011;55778;54.346;10.210;2023-04-16T11:37:34;17.45;;;10.70;;
68792;SDS011;55778;54.346;10.210;2023-04-16T11:40:01;21.38;;;10.23;;
68792;SDS011;55778;54.346;10.210;2023-04-16T11:42:30;17.90;;;10.02;;
68792;SDS011;55778;54.346;10.210;2023-04-16T11:44:57;18.55;;;10.30;;
68792;SDS011;55778;54.346;10.210;2023-04-16T11:47:25;19.48;;;9.85;;
68792;SDS011;55778;54.346;10.210;2023-04-16T11:49:51;18.33;;;10.43;;
68792;SDS011;55778;54.346;10.210;2023-04-16T11:52:26;20.08;;;10.40;;
68792;SDS011;55778;54.346;10.210;2023-04-16T11:54:53;18.60;;;10.10;;
68792;SDS011;55778;54.346;10.210;2023-04-16T11:57:25;16.00;;;9.60;;
68792;SDS011;55778;54.346;10.210;2023-04-16T11:59:55;17.88;;;10.57;;
68792;SDS011;55778;54.346;10.210;2023-04-16T12:02:34;18.60;;;10.07;;
68792;SDS011;55778;54.346;10.210;2023-04-16T12:05:01;16.67;;;9.70;;
68792;SDS011;55778;54.346;10.210;2023-04-16T12:07:27;19.02;;;10.02;;
68792;SDS011;55778;54.346;10.210;2023-04-16T12:10:02;18.17;;;9.52;;
68792;SDS011;55778;54.346;10.210;2023-04-16T12:12:30;16.48;;;8.80;;
68792;SDS011;55778;54.346;10.210;2023-04-16T12:14:56;14.50;;;8.75;;
68792;SDS011;55778;54.346;10.210;2023-04-16T12:17:23;16.40;;;9.23;;
68792;SDS011;55778;54.346;10.210;2023-04-16T12:19:59;16.05;;;9.07;;
68792;SDS011;55778;54.346;10.210;2023-04-16T12:22:27;18.77;;;9.90;;
68792;SDS011;55778;54.346;10.210;2023-04-16T12:25:12;15.65;;;9.02;;
68792;SDS011;55778;54.346;10.210;2023-04-16T12:27:43;16.55;;;9.02;;
68792;SDS011;55778;54.346;10.210;2023-04-16T12:30:14;17.20;;;9.43;;
68792;SDS011;55778;54.346;10.210;2023-04-16T12:32:41;17.38;;;9.88;;
68792;SDS011;55778;54.346;10.210;2023-04-16T12:35:09;19.38;;;9.35;;
68792;SDS011;55778;54.346;10.210;2023-04-16T12:37:34;15.27;;;9.10;;
68792;SDS011;55778;54.346;10.210;2023-04-16T12:40:00;15.07;;;9.15;;
68792;SDS011;55778;54.346;10.210;2023-04-16T12:42:26;15.60;;;9.18;;
68792;SDS011;55778;54.346;10.210;2023-04-16T12:44:51;13.93;;;9.07;;
68792;SDS011;55778;54.346;10.210;2023-04-16T12:47:17;18.85;;;10.70;;
68792;SDS011;55778;54.346;10.210;2023-04-16T12:49:42;15.75;;;9.57;;
68792;SDS011;55778;54.346;10.210;2023-04-16T12:52:08;18.60;;;10.35;;
68792;SDS011;55778;54.346;10.210;2023-04-16T12:54:34;25.95;;;12.55;;
68792;SDS011;55778;54.346;10.210;2023-04-16T12:57:00;22.67;;;11.75;;
68792;SDS011;55778;54.346;10.210;2023-04-16T12:59:25;21.13;;;11.27;;
68792;SDS011;55778;54.346;10.210;2023-04-16T13:01:51;22.85;;;10.82;;
68792;SDS011;55778;54.346;10.210;2023-04-16T13:04:16;14.25;;;9.20;;
68792;SDS011;55778;54.346;10.210;2023-04-16T13:06:43;17.50;;;9.65;;
68792;SDS011;55778;54.346;10.210;2023-04-16T13:09:09;17.67;;;10.60;;
68792;SDS011;55778;54.346;10.210;2023-04-16T13:11:35;19.80;;;10.77;;
68792;SDS011;55778;54.346;10.210;2023-04-16T13:14:01;18.70;;;10.43;;
68792;SDS011;55778;54.346;10.210;2023-04-16T13:16:26;17.05;;;9.23;;
68792;SDS011;55778;54.346;10.210;2023-04-16T13:18:52;14.90;;;8.63;;
68792;SDS011;55778;54.346;10.210;2023-04-16T13:21:17;17.27;;;9.13;;
68792;SDS011;55778;54.346;10.210;2023-04-16T13:23:42;17.30;;;9.13;;
68792;SDS011;55778;54.346;10.210;2023-04-16T13:26:08;17.48;;;9.18;;
68792;SDS011;55778;54.346;10.210;2023-04-16T13:28:33;17.08;;;9.77;;
68792;SDS011;55778;54.346;10.210;2023-04-16T13:30:59;17.55;;;9.98;;
68792;SDS011;55778;54.346;10.210;2023-04-16T13:33:25;15.35;;;8.85;;
68792;SDS011;55778;54.346;10.210;2023-04-16T13:35:50;17.98;;;9.50;;
68792;SDS011;55778;54.346;10.210;2023-04-16T13:38:16;19.00;;;9.43;;
68792;SDS011;55778;54.346;10.210;2023-04-16T13:40:42;15.65;;;8.98;;
68792;SDS011;55778;54.346;10.210;2023-04-16T13:43:08;16.98;;;10.13;;
68792;SDS011;55778;54.346;10.210;2023-04-16T13:45:33;14.93;;;8.32;;
68792;SDS011;55778;54.346;10.210;2023-04-16T13:47:59;14.68;;;9.27;;
68792;SDS011;55778;54.346;10.210;2023-04-16T13:50:26;19.27;;;9.95;;
68792;SDS011;55778;54.346;10.210;2023-04-16T13:52:51;17.70;;;9.20;;
68792;SDS011;55778;54.346;10.210;2023-04-16T13:55:17;18.13;;;9.88;;
68792;SDS011;55778;54.346;10.210;2023-04-16T13:57:45;14.68;;;9.15;;
68792;SDS011;55778;54.346;10.210;2023-04-16T14:00:11;16.98;;;10.10;;
68792;SDS011;55778;54.346;10.210;2023-04-16T14:02:38;16.27;;;9.50;;
68792;SDS011;55778;54.346;10.210;2023-04-16T14:05:04;17.73;;;9.20;;
68792;SDS011;55778;54.346;10.210;2023-04-16T14:07:30;18.65;;;9.48;;
68792;SDS011;55778;54.346;10.210;2023-04-16T14:09:56;13.95;;;9.40;;
68792;SDS011;55778;54.346;10.210;2023-04-16T14:12:22;17.40;;;10.15;;
68792;SDS011;55778;54.346;10.210;2023-04-16T14:14:47;16.75;;;9.90;;